Time;durP1;ratioP1;P1;durP2;ratioP2;P2;SDS_P1;SDS_P2;PMS_P1;PMS_P2;Temp;Humidity;BMP_temperature;BMP_pressure;BME280_temperature;BME280_humidity;BME280_pressure;Samples;Min_cycle;Max_cycle;Signal;HPM_P1;HPM_P2
2022/07/01 00:00:35;;;;;;;;;;;;;;;27.41;44.30;100692.81;105140;1301;59420;-82
2022/07/01 00:03:01;;;;;;;;;;;;;;;27.42;44.41;100688.81;105142;1300;61374;-82
2022/07/01 00:05:26;;;;;;;;;;;;;;;27.41;44.31;100694.11;104895;1302;61530;-82
2022/07/01 00:07:52;;;;;;;;;;;;;;;27.41;44.66;100694.30;104927;1302;61240;-82
2022/07/01 00:10:17;;;;;;;;;;;;;;;27.40;44.49;100691.82;104924;1302;61288;-82
2022/07/01 00:12:43;;;;;;;;;;;;;;;27.41;44.66;100695.93;104903;1302;61261;-82
2022/07/01 00:15:09;;;;;;;;;;;;;;;27.41;44.59;100695.79;104953;1302;61416;-82
2022/07/01 00:17:35;;;;;;;;;;;;;;;27.41;44.50;100696.34;105100;1302;74025;-82
2022/07/01 00:20:01;;;;;;;;;;;;;;;27.40;44.49;100692.91;104924;1302;61728;-82
2022/07/01 00:22:27;;;;;;;;;;;;;;;27.40;44.61;100689.15;104886;1302;61287;-82
2022/07/01 00:24:53;;;;;;;;;;;;;;;27.40;44.75;100685.36;105143;1303;61283;-82
2022/07/01 00:27:19;;;;;;;;;;;;;;;27.40;44.57;100684.30;104907;1303;61258;-82
2022/07/01 00:29:44;;;;;;;;;;;;;;;27.40;44.85;100685.05;104908;1302;61367;-82
2022/07/01 00:32:10;;;;;;;;;;;;;;;27.39;44.61;100681.45;104969;1302;61304;-82
2022/07/01 00:34:35;;;;;;;;;;;;;;;27.40;44.48;100683.77;104893;1303;61064;-82
2022/07/01 00:37:01;;;;;;;;;;;;;;;27.40;44.59;100682.00;104955;1301;61290;-82
2022/07/01 00:39:30;;;;;;;;;;;;;;;27.40;44.72;100678.50;104887;1302;61182;-82
2022/07/01 00:41:59;;;;;;;;;;;;;;;27.39;44.73;100678.78;104963;1302;75764;-82
2022/07/01 00:44:25;;;;;;;;;;;;;;;27.40;44.65;100677.96;105235;1302;61255;-82
2022/07/01 00:46:50;;;;;;;;;;;;;;;27.40;44.77;100678.36;105201;1302;61259;-82
2022/07/01 00:49:16;;;;;;;;;;;;;;;27.40;44.68;100683.05;105220;1302;61347;-82
2022/07/01 00:51:42;;;;;;;;;;;;;;;27.40;44.84;100682.67;105182;1302;61293;-82
2022/07/01 00:54:08;;;;;;;;;;;;;;;27.40;44.85;100681.42;105052;1302;61239;-82
2022/07/01 00:56:34;;;;;;;;;;;;;;;27.40;44.82;100675.63;105234;1303;61361;-82
2022/07/01 00:58:59;;;;;;;;;;;;;;;27.40;44.78;100672.16;105086;1302;61179;-82
2022/07/01 01:01:25;;;;;;;;;;;;;;;27.41;44.75;100669.23;105043;1302;61254;-82
2022/07/01 01:03:51;;;;;;;;;;;;;;;27.40;44.95;100667.64;105284;1302;61276;-82
2022/07/01 01:06:16;;;;;;;;;;;;;;;27.40;44.97;100666.51;104904;1301;61310;-82
2022/07/01 01:08:42;;;;;;;;;;;;;;;27.41;44.97;100665.95;105018;1302;61284;-82
2022/07/01 01:11:07;;;;;;;;;;;;;;;27.41;45.02;100664.48;104951;1302;61368;-82
2022/07/01 01:13:33;;;;;;;;;;;;;;;27.41;45.05;100665.20;105138;1302;61269;-82
2022/07/01 01:15:58;;;;;;;;;;;;;;;27.41;44.87;100663.44;105169;1302;61310;-82
2022/07/01 01:18:24;;;;;;;;;;;;;;;27.40;45.08;100664.55;104991;1302;62461;-82
2022/07/01 01:20:49;;;;;;;;;;;;;;;27.40;44.95;100660.78;105163;1302;61269;-82
2022/07/01 01:23:15;;;;;;;;;;;;;;;27.40;45.18;100659.33;105078;1302;61290;-82
2022/07/01 01:25:40;;;;;;;;;;;;;;;27.40;45.03;100661.50;105180;1302;61362;-82
2022/07/01 01:28:05;;;;;;;;;;;;;;;27.40;45.09;100659.73;104960;1302;61365;-81
2022/07/01 01:30:31;;;;;;;;;;;;;;;27.39;45.30;100659.40;105175;1302;62466;-81
2022/07/01 01:32:56;;;;;;;;;;;;;;;27.39;45.27;100659.64;105218;1302;61371;-82
2022/07/01 01:35:22;;;;;;;;;;;;;;;27.39;45.05;100661.99;105220;1302;61378;-81
2022/07/01 01:37:48;;;;;;;;;;;;;;;27.39;45.19;100665.40;104952;1302;61281;-82
2022/07/01 01:40:15;;;;;;;;;;;;;;;27.39;45.21;100666.54;104927;1302;61320;-82
2022/07/01 01:42:43;;;;;;;;;;;;;;;27.39;45.15;100664.20;105156;1302;61274;-82
2022/07/01 01:45:09;;;;;;;;;;;;;;;27.38;45.12;100664.23;105143;1302;61368;-82
2022/07/01 01:47:34;;;;;;;;;;;;;;;27.38;45.15;100664.42;105193;1301;61272;-82
2022/07/01 01:50:00;;;;;;;;;;;;;;;27.38;45.25;100668.21;104964;1302;61283;-82
2022/07/01 01:52:25;;;;;;;;;;;;;;;27.38;44.99;100668.45;104927;1302;61296;-82
2022/07/01 01:54:50;;;;;;;;;;;;;;;27.37;45.13;100671.54;105221;1302;61244;-82
2022/07/01 01:57:16;;;;;;;;;;;;;;;27.38;45.16;100671.70;105231;1300;61331;-82
2022/07/01 01:59:41;;;;;;;;;;;;;;;27.37;45.37;100668.28;105228;1302;61249;-81
2022/07/01 02:02:08;;;;;;;;;;;;;;;27.37;45.24;100669.77;105156;1302;61835;-81
2022/07/01 02:04:34;;;;;;;;;;;;;;;27.37;45.35;100671.60;105006;1302;61272;-81
2022/07/01 02:06:59;;;;;;;;;;;;;;;27.37;45.35;100669.98;104985;1302;61314;-81
2022/07/01 02:09:25;;;;;;;;;;;;;;;27.37;45.22;100671.41;105006;1302;61281;-81
2022/07/01 02:11:50;;;;;;;;;;;;;;;27.36;45.50;100666.56;105030;1302;61367;-81
2022/07/01 02:14:16;;;;;;;;;;;;;;;27.37;45.38;100663.66;105156;1302;61291;-81
2022/07/01 02:16:41;;;;;;;;;;;;;;;27.36;45.34;100658.80;104939;1302;61270;-82
2022/07/01 02:19:07;;;;;;;;;;;;;;;27.36;45.48;100661.15;104954;1302;61799;-82
2022/07/01 02:21:32;;;;;;;;;;;;;;;27.36;45.27;100663.31;105208;1302;61265;-81
2022/07/01 02:23:58;;;;;;;;;;;;;;;27.36;45.54;100663.73;105240;1302;61278;-81
2022/07/01 02:26:24;;;;;;;;;;;;;;;27.37;45.53;100665.48;105011;1302;61323;-81
2022/07/01 02:28:49;;;;;;;;;;;;;;;27.36;45.54;100666.98;104898;1303;61380;-81
2022/07/01 02:31:14;;;;;;;;;;;;;;;27.35;45.33;100671.01;104991;1302;61271;-81
2022/07/01 02:33:40;;;;;;;;;;;;;;;27.36;45.33;100668.55;105142;1303;61253;-81
2022/07/01 02:36:05;;;;;;;;;;;;;;;27.36;45.58;100666.80;105203;1302;61400;-81
2022/07/01 02:38:31;;;;;;;;;;;;;;;27.36;45.60;100672.02;105187;1302;75471;-82
2022/07/01 02:40:57;;;;;;;;;;;;;;;27.36;45.60;100672.95;105165;1302;61295;-82
2022/07/01 02:43:23;;;;;;;;;;;;;;;27.35;45.26;100670.98;105131;1302;61302;-82
2022/07/01 02:45:48;;;;;;;;;;;;;;;27.35;45.49;100668.49;105142;1302;61269;-82
2022/07/01 02:48:14;;;;;;;;;;;;;;;27.35;45.58;100667.21;104990;1301;61361;-82
2022/07/01 02:50:39;;;;;;;;;;;;;;;27.35;45.60;100667.37;105172;1302;74714;-82
2022/07/01 02:53:04;;;;;;;;;;;;;;;27.35;45.57;100669.71;104962;1302;61294;-82
2022/07/01 02:55:30;;;;;;;;;;;;;;;27.35;45.83;100672.80;104911;1302;61277;-81
2022/07/01 02:57:56;;;;;;;;;;;;;;;27.35;45.71;100679.13;104956;1301;61454;-81
2022/07/01 03:00:22;;;;;;;;;;;;;;;27.35;45.67;100681.84;104979;1302;61272;-82
2022/07/01 03:02:47;;;;;;;;;;;;;;;27.35;45.80;100687.06;105012;1302;75612;-82
2022/07/01 03:05:13;;;;;;;;;;;;;;;27.36;45.74;100691.92;104935;1302;61741;-82
2022/07/01 03:07:39;;;;;;;;;;;;;;;27.36;45.79;100695.91;105142;1302;61397;-81
2022/07/01 03:10:04;;;;;;;;;;;;;;;27.36;45.94;100699.68;105006;1302;61269;-81
2022/07/01 03:12:34;;;;;;;;;;;;;;;27.36;45.91;100705.66;104968;1302;61293;-81
2022/07/01 03:15:00;;;;;;;;;;;;;;;27.36;45.93;100707.46;105124;1302;62377;-82
2022/07/01 03:17:26;;;;;;;;;;;;;;;27.36;45.80;100708.72;105140;1301;61281;-81
2022/07/01 03:19:52;;;;;;;;;;;;;;;27.36;45.85;100713.23;104935;1302;61228;-81
2022/07/01 03:22:18;;;;;;;;;;;;;;;27.36;45.82;100714.33;105136;1301;61265;-81
2022/07/01 03:24:44;;;;;;;;;;;;;;;27.36;45.72;100717.02;104917;1302;61275;-81
2022/07/01 03:27:09;;;;;;;;;;;;;;;27.36;45.79;100720.11;105003;1302;61242;-81
2022/07/01 03:29:35;;;;;;;;;;;;;;;27.36;45.90;100722.98;105222;1302;61253;-81
2022/07/01 03:32:00;;;;;;;;;;;;;;;27.35;45.84;100725.58;104992;1302;61280;-81
2022/07/01 03:34:26;;;;;;;;;;;;;;;27.35;45.96;100729.17;104944;1302;61382;-82
2022/07/01 03:36:51;;;;;;;;;;;;;;;27.35;45.89;100730.53;104865;1302;61209;-82
2022/07/01 03:39:17;;;;;;;;;;;;;;;27.35;45.68;100728.54;104967;1302;61275;-82
2022/07/01 03:41:42;;;;;;;;;;;;;;;27.34;45.93;100732.70;104972;1302;62585;-82
2022/07/01 03:44:08;;;;;;;;;;;;;;;27.35;45.93;100736.29;104952;1302;61261;-82
2022/07/01 03:46:35;;;;;;;;;;;;;;;27.34;46.10;100734.92;104839;1302;61267;-82
2022/07/01 03:49:00;;;;;;;;;;;;;;;27.34;45.97;100740.88;104930;1302;61365;-82
2022/07/01 03:51:26;;;;;;;;;;;;;;;27.34;46.02;100747.02;104968;1303;61355;-81
2022/07/01 03:56:36;;;;;;;;;;;;;;;27.33;46.10;100743.11;105168;1302;75869;-82
2022/07/01 03:59:01;;;;;;;;;;;;;;;27.33;46.16;100745.66;105020;1302;61258;-82
2022/07/01 04:01:26;;;;;;;;;;;;;;;27.33;46.14;100746.98;105170;1302;61230;-82
2022/07/01 04:03:52;;;;;;;;;;;;;;;27.32;45.78;100748.46;104986;1303;61311;-81
2022/07/01 04:06:17;;;;;;;;;;;;;;;27.32;45.98;100753.51;105068;1302;61285;-81
2022/07/01 04:08:43;;;;;;;;;;;;;;;27.32;46.22;100760.77;105028;1302;61338;-81
2022/07/01 04:11:08;;;;;;;;;;;;;;;27.32;46.24;100760.61;105195;1302;61291;-81
2022/07/01 04:13:36;;;;;;;;;;;;;;;27.31;45.96;100756.89;105028;1302;61193;-81
2022/07/01 04:16:02;;;;;;;;;;;;;;;27.31;45.95;100753.30;104914;1302;61296;-82
2022/07/01 04:18:28;;;;;;;;;;;;;;;27.31;46.00;100753.31;104988;1302;61935;-82
2022/07/01 04:23:37;;;;;;;;;;;;;;;27.30;46.28;100754.13;105015;1302;61195;-82
2022/07/01 04:26:03;;;;;;;;;;;;;;;27.30;45.88;100757.21;104984;1302;62055;-82
2022/07/01 04:28:28;;;;;;;;;;;;;;;27.29;45.96;100761.09;105136;1302;61286;-83
2022/07/01 04:30:53;;;;;;;;;;;;;;;27.29;46.09;100756.95;105173;1302;61270;-82
2022/07/01 04:33:19;;;;;;;;;;;;;;;27.28;46.12;100758.27;105199;1302;61286;-82
2022/07/01 04:35:44;;;;;;;;;;;;;;;27.29;46.09;100757.86;105117;1303;61269;-82
2022/07/01 04:38:10;;;;;;;;;;;;;;;27.27;46.33;100758.02;105026;1302;61356;-82
2022/07/01 04:40:36;;;;;;;;;;;;;;;27.26;46.04;100762.49;105006;1302;61301;-82
2022/07/01 04:43:01;;;;;;;;;;;;;;;27.25;46.23;100760.01;105158;1302;61380;-82
2022/07/01 04:45:27;;;;;;;;;;;;;;;27.24;46.09;100761.68;105219;1302;61284;-82
2022/07/01 04:47:52;;;;;;;;;;;;;;;27.24;46.26;100756.33;104980;1303;63157;-82
2022/07/01 04:50:18;;;;;;;;;;;;;;;27.23;46.23;100754.05;105184;1302;61285;-82
2022/07/01 04:52:43;;;;;;;;;;;;;;;27.23;46.29;100754.08;105147;1302;61306;-82
2022/07/01 04:55:09;;;;;;;;;;;;;;;27.22;46.04;100756.67;104987;1303;61508;-81
2022/07/01 04:57:35;;;;;;;;;;;;;;;27.21;46.37;100756.19;104967;1301;61270;-81
2022/07/01 05:00:00;;;;;;;;;;;;;;;27.21;46.11;100755.27;105041;1303;61290;-81
2022/07/01 05:02:26;;;;;;;;;;;;;;;27.21;46.20;100757.34;105012;1303;61276;-81
2022/07/01 05:04:52;;;;;;;;;;;;;;;27.21;46.05;100757.71;105152;1303;61298;-81
2022/07/01 05:07:30;;;;;;;;;;;;;;;27.21;46.16;100760.42;105127;1302;61259;-81
2022/07/01 05:09:56;;;;;;;;;;;;;;;27.22;46.26;100766.12;104915;1303;61317;-81
2022/07/01 05:12:21;;;;;;;;;;;;;;;27.22;46.40;100769.67;105160;1303;61712;-81
2022/07/01 05:14:47;;;;;;;;;;;;;;;27.22;46.04;100770.43;105009;1302;61673;-81
2022/07/01 05:17:13;;;;;;;;;;;;;;;27.22;45.93;100767.89;104903;1303;61364;-81
2022/07/01 05:22:22;;;;;;;;;;;;;;;27.22;46.26;100772.02;105182;1303;72869;-81
2022/07/01 05:24:48;;;;;;;;;;;;;;;27.22;46.21;100772.05;105135;1301;62026;-81
2022/07/01 05:27:13;;;;;;;;;;;;;;;27.22;46.16;100771.48;105193;1302;61258;-81
2022/07/01 05:29:39;;;;;;;;;;;;;;;27.22;46.17;100771.29;105164;1303;61263;-82
2022/07/01 05:32:05;;;;;;;;;;;;;;;27.23;46.22;100770.71;105206;1302;61284;-82
2022/07/01 05:34:31;;;;;;;;;;;;;;;27.23;46.05;100771.39;105220;1302;72782;-81
2022/07/01 05:36:57;;;;;;;;;;;;;;;27.23;46.17;100769.39;105267;1301;61306;-81
2022/07/01 05:39:22;;;;;;;;;;;;;;;27.24;46.05;100766.98;105267;1302;61434;-81
2022/07/01 05:41:48;;;;;;;;;;;;;;;27.24;46.19;100763.14;105131;1303;61281;-81
2022/07/01 05:44:13;;;;;;;;;;;;;;;27.24;45.92;100758.84;105146;1302;62074;-81
2022/07/01 05:46:38;;;;;;;;;;;;;;;27.24;46.14;100764.06;105236;1303;73749;-81
2022/07/01 05:49:05;;;;;;;;;;;;;;;27.25;46.03;100765.26;105221;1303;61220;-81
2022/07/01 05:51:30;;;;;;;;;;;;;;;27.25;45.93;100770.67;105117;1303;61438;-81
2022/07/01 05:53:56;;;;;;;;;;;;;;;27.25;45.97;100776.58;104979;1303;61361;-81
2022/07/01 05:56:22;;;;;;;;;;;;;;;27.26;46.07;100781.05;105098;1302;61909;-81
2022/07/01 05:58:47;;;;;;;;;;;;;;;27.27;45.96;100788.00;105013;1302;61275;-81
2022/07/01 06:01:13;;;;;;;;;;;;;;;27.27;46.07;100789.46;105034;1302;61416;-81
2022/07/01 06:03:38;;;;;;;;;;;;;;;27.28;46.03;100790.66;104945;1303;61272;-81
2022/07/01 06:06:04;;;;;;;;;;;;;;;27.28;45.96;100785.23;105179;1303;61358;-81
2022/07/01 06:08:30;;;;;;;;;;;;;;;27.28;46.11;100788.86;105170;1302;61313;-81
2022/07/01 06:10:55;;;;;;;;;;;;;;;27.28;46.06;100786.46;105094;1303;61281;-81
2022/07/01 06:13:20;;;;;;;;;;;;;;;27.29;46.02;100793.46;105162;1302;61318;-81
2022/07/01 06:15:46;;;;;;;;;;;;;;;27.29;46.08;100791.07;105245;1301;61310;-81
2022/07/01 06:18:11;;;;;;;;;;;;;;;27.30;46.20;100785.77;105250;1303;61384;-81
2022/07/01 06:20:37;;;;;;;;;;;;;;;27.31;46.12;100786.92;105139;1302;61372;-81
2022/07/01 06:23:03;;;;;;;;;;;;;;;27.32;45.77;100789.16;105116;1301;61381;-81
2022/07/01 06:25:29;;;;;;;;;;;;;;;27.33;45.95;100788.31;105226;1302;61128;-81
2022/07/01 06:27:54;;;;;;;;;;;;;;;27.34;45.96;100792.89;104846;1302;515344;-81
2022/07/01 06:30:20;;;;;;;;;;;;;;;27.35;45.97;100791.95;105154;1302;61353;-81
2022/07/01 06:32:45;;;;;;;;;;;;;;;27.35;45.91;100800.02;105034;1303;61370;-81
2022/07/01 06:35:11;;;;;;;;;;;;;;;27.36;45.90;100802.63;105204;1303;61259;-81
2022/07/01 06:37:37;;;;;;;;;;;;;;;27.37;45.94;100802.23;105057;1303;61247;-82
2022/07/01 06:40:04;;;;;;;;;;;;;;;27.37;45.84;100804.90;105272;1303;61348;-82
2022/07/01 06:42:29;;;;;;;;;;;;;;;27.39;46.09;100806.73;105236;1303;61153;-82
2022/07/01 06:44:55;;;;;;;;;;;;;;;27.40;45.72;100811.39;105139;1302;61251;-82
2022/07/01 06:47:21;;;;;;;;;;;;;;;27.40;45.70;100808.63;105114;1303;61418;-82
2022/07/01 06:49:46;;;;;;;;;;;;;;;27.40;45.49;100810.22;105135;1301;61275;-82
2022/07/01 06:52:11;;;;;;;;;;;;;;;27.40;45.65;100808.39;105273;1302;61229;-82
2022/07/01 06:54:37;;;;;;;;;;;;;;;27.41;45.68;100807.65;105100;1303;61275;-82
2022/07/01 06:57:04;;;;;;;;;;;;;;;27.41;45.60;100805.64;105122;1301;61285;-83
2022/07/01 06:59:29;;;;;;;;;;;;;;;27.41;45.77;100799.52;104848;1302;61888;-82
2022/07/01 07:01:55;;;;;;;;;;;;;;;27.41;45.92;100802.53;104955;1302;61374;-83
2022/07/01 07:04:20;;;;;;;;;;;;;;;27.42;45.64;100797.23;104951;1302;61265;-81
2022/07/01 07:06:45;;;;;;;;;;;;;;;27.42;45.91;100792.29;105010;1302;61358;-81
2022/07/01 07:09:11;;;;;;;;;;;;;;;27.43;45.77;100785.73;104969;1302;74053;-81
2022/07/01 07:11:36;;;;;;;;;;;;;;;27.44;45.76;100788.38;104952;1303;61378;-81
2022/07/01 07:14:02;;;;;;;;;;;;;;;27.44;45.68;100781.99;104997;1302;61254;-81
2022/07/01 07:16:28;;;;;;;;;;;;;;;27.45;45.68;100784.84;105236;1302;61301;-81
2022/07/01 07:18:53;;;;;;;;;;;;;;;27.46;45.55;100784.94;105177;1303;61390;-81
2022/07/01 07:21:19;;;;;;;;;;;;;;;27.47;45.57;100782.88;105128;1301;72781;-81
2022/07/01 07:23:45;;;;;;;;;;;;;;;27.47;45.58;100784.09;105113;1303;61377;-81
2022/07/01 07:26:12;;;;;;;;;;;;;;;27.47;45.41;100788.23;104970;1302;61346;-82
2022/07/01 07:28:37;;;;;;;;;;;;;;;27.48;45.39;100783.48;105117;1303;61347;-82
2022/07/01 07:31:03;;;;;;;;;;;;;;;27.48;45.48;100779.86;105117;1303;61987;-82
2022/07/01 07:33:29;;;;;;;;;;;;;;;27.49;45.63;100780.69;105085;1303;62903;-82
2022/07/01 07:35:54;;;;;;;;;;;;;;;27.48;45.74;100775.33;105128;1302;61233;-81
2022/07/01 07:38:20;;;;;;;;;;;;;;;27.48;45.37;100779.60;105182;1302;61220;-81
2022/07/01 07:40:46;;;;;;;;;;;;;;;27.49;45.69;100779.54;105030;1302;61372;-81
2022/07/01 07:43:12;;;;;;;;;;;;;;;27.49;45.35;100778.29;105109;1302;61230;-81
2022/07/01 07:45:37;;;;;;;;;;;;;;;27.50;45.51;100779.11;105129;1302;61221;-82
2022/07/01 07:48:03;;;;;;;;;;;;;;;27.50;45.40;100778.38;104902;1302;61756;-81
2022/07/01 07:50:31;;;;;;;;;;;;;;;27.50;45.36;100779.05;105139;1302;61173;-81
2022/07/01 07:52:56;;;;;;;;;;;;;;;27.51;45.63;100771.64;105064;1302;61242;-81
2022/07/01 07:55:22;;;;;;;;;;;;;;;27.51;45.47;100770.34;104932;1303;61463;-81
2022/07/01 07:57:48;;;;;;;;;;;;;;;27.51;45.15;100771.53;105172;1302;61289;-81
2022/07/01 08:00:13;;;;;;;;;;;;;;;27.52;45.56;100772.76;105155;1302;61258;-81
2022/07/01 08:02:39;;;;;;;;;;;;;;;27.52;45.25;100769.14;104885;1302;61237;-81
2022/07/01 08:05:05;;;;;;;;;;;;;;;27.52;45.34;100768.57;104804;1302;61381;-81
2022/07/01 08:07:34;;;;;;;;;;;;;;;27.52;45.50;100772.16;105022;1302;61151;-81
2022/07/01 08:09:59;;;;;;;;;;;;;;;27.54;45.26;100775.66;105012;1303;62498;-81
2022/07/01 08:12:26;;;;;;;;;;;;;;;27.54;45.28;100771.31;105206;1302;61355;-82
2022/07/01 08:14:51;;;;;;;;;;;;;;;27.54;45.21;100767.80;105082;1301;61248;-82
2022/07/01 08:17:16;;;;;;;;;;;;;;;27.54;45.13;100764.38;105029;1303;61364;-82
2022/07/01 08:19:42;;;;;;;;;;;;;;;27.55;45.35;100762.89;105008;1302;61434;-82
2022/07/01 08:22:07;;;;;;;;;;;;;;;27.55;45.23;100765.02;104863;1302;61247;-82
2022/07/01 08:24:33;;;;;;;;;;;;;;;27.55;45.17;100764.63;104773;1302;61374;-82
2022/07/01 08:26:58;;;;;;;;;;;;;;;27.55;45.14;100762.79;104780;1302;61427;-82
2022/07/01 08:29:24;;;;;;;;;;;;;;;27.56;45.43;100765.41;104971;1303;59483;-82
2022/07/01 08:31:50;;;;;;;;;;;;;;;27.57;45.17;100761.61;104698;1303;61324;-82
2022/07/01 08:34:15;;;;;;;;;;;;;;;27.58;45.27;100758.59;104938;1302;61884;-82
2022/07/01 08:36:41;;;;;;;;;;;;;;;27.58;44.95;100760.19;105025;1302;61035;-82
2022/07/01 08:39:06;;;;;;;;;;;;;;;27.59;45.08;100761.21;105197;1302;61223;-82
2022/07/01 08:41:32;;;;;;;;;;;;;;;27.59;45.28;100759.73;105017;1303;61285;-82
2022/07/01 08:43:58;;;;;;;;;;;;;;;27.59;45.29;100761.13;105073;1303;61459;-81
2022/07/01 08:46:23;;;;;;;;;;;;;;;27.60;45.12;100762.72;104972;1302;61312;-81
2022/07/01 08:48:49;;;;;;;;;;;;;;;27.61;44.89;100764.29;105152;1303;61377;-81
2022/07/01 08:51:14;;;;;;;;;;;;;;;27.60;45.12;100770.98;105179;1301;61241;-81
2022/07/01 08:53:39;;;;;;;;;;;;;;;27.61;45.02;100772.93;105043;1302;61253;-81
2022/07/01 08:58:49;;;;;;;;;;;;;;;27.61;45.09;100773.64;104927;1302;61775;-82
2022/07/01 09:01:16;;;;;;;;;;;;;;;27.62;45.11;100772.90;104637;1303;61903;-82
2022/07/01 09:03:42;;;;;;;;;;;;;;;27.62;45.11;100772.48;104741;1302;61417;-82
2022/07/01 09:06:12;;;;;;;;;;;;;;;27.63;44.95;100774.42;105402;1302;61250;-82
2022/07/01 09:08:38;;;;;;;;;;;;;;;27.63;45.15;100778.73;104949;1302;61250;-82
2022/07/01 09:11:16;;;;;;;;;;;;;;;27.64;45.23;100769.94;105074;1302;61464;-82
2022/07/01 09:13:42;;;;;;;;;;;;;;;27.64;45.04;100770.13;105192;1303;74572;-82
2022/07/01 09:16:16;;;;;;;;;;;;;;;27.65;44.82;100767.51;105184;1302;61297;-82
2022/07/01 09:19:01;;;;;;;;;;;;;;;27.66;44.87;100767.62;105007;1301;61386;-82
2022/07/01 09:21:30;;;;;;;;;;;;;;;27.65;45.17;100768.54;104834;1302;73039;-82
2022/07/01 09:23:56;;;;;;;;;;;;;;;27.66;45.13;100771.23;105556;1301;74496;-82
2022/07/01 09:26:22;;;;;;;;;;;;;;;27.66;44.88;100770.10;105873;1302;59053;-82
2022/07/01 09:28:55;;;;;;;;;;;;;;;27.66;45.13;100770.45;104879;1302;61409;-82
2022/07/01 09:31:20;;;;;;;;;;;;;;;27.67;44.97;100778.67;105229;1301;71832;-82
2022/07/01 09:33:46;;;;;;;;;;;;;;;27.68;45.04;100780.77;104943;1303;62290;-82
2022/07/01 09:36:15;;;;;;;;;;;;;;;27.68;44.84;100772.97;105100;1303;61281;-82
2022/07/01 09:38:45;;;;;;;;;;;;;;;27.69;44.97;100773.80;105054;1302;61838;-82
2022/07/01 09:41:11;;;;;;;;;;;;;;;27.69;44.89;100769.58;104941;1302;72773;-82
2022/07/01 09:43:38;;;;;;;;;;;;;;;27.69;44.99;100761.27;105038;1303;75824;-82
2022/07/01 09:46:08;;;;;;;;;;;;;;;27.69;44.92;100761.48;104974;1303;61306;-82
2022/07/01 09:48:33;;;;;;;;;;;;;;;27.69;44.93;100764.19;104868;1303;62615;-82
2022/07/01 09:50:59;;;;;;;;;;;;;;;27.69;44.68;100763.64;104995;1302;61352;-82
2022/07/01 09:53:25;;;;;;;;;;;;;;;27.69;44.82;100755.71;104982;1303;61255;-82
2022/07/01 09:55:50;;;;;;;;;;;;;;;27.69;44.60;100756.42;105118;1302;61292;-82
2022/07/01 09:58:16;;;;;;;;;;;;;;;27.69;44.67;100749.38;105013;1302;61272;-82
2022/07/01 10:00:41;;;;;;;;;;;;;;;27.69;44.69;100745.91;104992;1302;61174;-82
2022/07/01 10:03:07;;;;;;;;;;;;;;;27.69;44.77;100752.99;105067;1303;61384;-81
2022/07/01 10:05:37;;;;;;;;;;;;;;;27.68;44.66;100753.40;104870;1302;61270;-81
2022/07/01 10:08:21;;;;;;;;;;;;;;;27.69;44.74;100749.02;105147;1302;61174;-81
2022/07/01 10:10:51;;;;;;;;;;;;;;;27.69;44.81;100752.83;105116;1302;61278;-81
2022/07/01 10:13:17;;;;;;;;;;;;;;;27.68;44.72;100744.59;105209;1303;74382;-81
2022/07/01 10:15:45;;;;;;;;;;;;;;;27.68;44.68;100744.59;105092;1303;61413;-82
2022/07/01 10:18:24;;;;;;;;;;;;;;;27.67;44.68;100745.22;105178;1303;61275;-82
2022/07/01 10:20:49;;;;;;;;;;;;;;;27.67;44.65;100742.17;105139;1303;62715;-82
2022/07/01 10:23:15;;;;;;;;;;;;;;;27.67;44.84;100741.45;105046;1302;61979;-81
2022/07/01 10:25:44;;;;;;;;;;;;;;;27.66;44.71;100737.02;105214;1302;61361;-81
2022/07/01 10:28:16;;;;;;;;;;;;;;;27.66;44.67;100733.41;105268;1301;61017;-81
2022/07/01 10:31:01;;;;;;;;;;;;;;;27.65;44.88;100729.17;105155;1302;61137;-81
2022/07/01 10:33:28;;;;;;;;;;;;;;;27.65;44.82;100723.91;105198;1301;73358;-81
2022/07/01 10:35:53;;;;;;;;;;;;;;;27.64;44.69;100722.89;105253;1302;74673;-81
2022/07/01 10:38:19;;;;;;;;;;;;;;;27.64;44.91;100726.18;105260;1302;61266;-81
2022/07/01 10:40:46;;;;;;;;;;;;;;;27.65;44.89;100728.48;105204;1301;61730;-81
2022/07/01 10:43:14;;;;;;;;;;;;;;;27.64;44.87;100728.17;105192;1303;61100;-82
2022/07/01 10:45:44;;;;;;;;;;;;;;;27.64;44.96;100724.08;105184;1302;75566;-82
2022/07/01 10:48:20;;;;;;;;;;;;;;;27.64;44.72;100721.00;105162;1302;61297;-82
2022/07/01 10:50:45;;;;;;;;;;;;;;;27.63;44.68;100720.84;105262;1302;61232;-82
2022/07/01 10:53:11;;;;;;;;;;;;;;;27.63;44.88;100726.81;104972;1302;61262;-82
2022/07/01 10:55:41;;;;;;;;;;;;;;;27.63;44.76;100719.05;105162;1302;61332;-81
2022/07/01 10:58:07;;;;;;;;;;;;;;;27.63;44.71;100723.57;105161;1302;61250;-81
2022/07/01 11:00:34;;;;;;;;;;;;;;;27.63;44.85;100714.71;105054;1303;61345;-81
2022/07/01 11:03:10;;;;;;;;;;;;;;;27.63;44.94;100712.14;105145;1303;61130;-81
2022/07/01 11:05:36;;;;;;;;;;;;;;;27.63;44.76;100707.46;105173;1303;75738;-81
2022/07/01 11:08:01;;;;;;;;;;;;;;;27.63;44.81;100705.48;105180;1302;61390;-81
2022/07/01 11:10:27;;;;;;;;;;;;;;;27.63;44.67;100702.06;105010;1302;61254;-81
2022/07/01 11:12:52;;;;;;;;;;;;;;;27.63;44.81;100703.29;104982;1302;61259;-81
2022/07/01 11:15:18;;;;;;;;;;;;;;;27.63;44.84;100701.91;105217;1302;61254;-82
2022/07/01 11:17:45;;;;;;;;;;;;;;;27.63;44.50;100704.03;105253;1303;61283;-82
2022/07/01 11:20:10;;;;;;;;;;;;;;;27.63;44.72;100702.04;105062;1303;62614;-81
2022/07/01 11:22:36;;;;;;;;;;;;;;;27.63;44.91;100693.36;105231;1303;61275;-81
2022/07/01 11:25:03;;;;;;;;;;;;;;;27.63;44.81;100696.63;105169;1302;61275;-81
2022/07/01 11:27:28;;;;;;;;;;;;;;;27.63;44.75;100693.54;105144;1302;61223;-81
2022/07/01 11:29:55;;;;;;;;;;;;;;;27.63;44.63;100699.33;105113;1301;61148;-81
2022/07/01 11:32:27;;;;;;;;;;;;;;;27.64;44.74;100689.54;105114;1303;61234;-81
2022/07/01 11:34:52;;;;;;;;;;;;;;;27.64;44.73;100682.11;105190;1302;73341;-81
2022/07/01 11:40:12;;;;;;;;;;;;;;;27.64;44.71;100681.77;105171;1302;61173;-81
2022/07/01 11:42:37;;;;;;;;;;;;;;;27.64;44.61;100676.51;105205;1301;61291;-81
2022/07/01 11:45:03;;;;;;;;;;;;;;;27.64;44.53;100676.52;105181;1301;61230;-82
2022/07/01 11:47:28;;;;;;;;;;;;;;;27.64;44.56;100672.83;105121;1302;61510;-82
2022/07/01 11:49:54;;;;;;;;;;;;;;;27.64;44.43;100677.01;105240;1301;61274;-82
2022/07/01 11:52:20;;;;;;;;;;;;;;;27.65;44.70;100669.34;104965;1302;61163;-82
2022/07/01 11:54:49;;;;;;;;;;;;;;;27.65;44.81;100669.16;105143;1302;61267;-82
2022/07/01 11:57:16;;;;;;;;;;;;;;;27.65;44.77;100665.55;105191;1303;72608;-81
2022/07/01 11:59:42;;;;;;;;;;;;;;;27.65;44.59;100666.83;105212;1302;75750;-81
2022/07/01 12:02:08;;;;;;;;;;;;;;;27.65;44.38;100664.77;105239;1302;61384;-81
2022/07/01 12:04:33;;;;;;;;;;;;;;;27.65;44.35;100662.23;105173;1302;61267;-81
2022/07/01 12:06:59;;;;;;;;;;;;;;;27.66;44.51;100661.45;105216;1302;61297;-81
2022/07/01 12:09:24;;;;;;;;;;;;;;;27.66;44.64;100662.40;105199;1301;61378;-81
2022/07/01 12:11:51;;;;;;;;;;;;;;;27.66;44.55;100653.48;105151;1303;61274;-81
2022/07/01 12:14:21;;;;;;;;;;;;;;;27.67;44.48;100657.40;105115;1302;61285;-81
2022/07/01 12:16:46;;;;;;;;;;;;;;;27.67;44.63;100660.05;105220;1303;61161;-81
2022/07/01 12:19:12;;;;;;;;;;;;;;;27.67;44.44;100656.41;105125;1302;61292;-81
2022/07/01 12:21:52;;;;;;;;;;;;;;;27.68;44.33;100651.51;105142;1303;61280;-81
2022/07/01 12:24:20;;;;;;;;;;;;;;;27.68;44.42;100653.45;105254;1301;61386;-81
2022/07/01 12:26:53;;;;;;;;;;;;;;;27.69;44.40;100647.77;105140;1303;61287;-81
2022/07/01 12:29:20;;;;;;;;;;;;;;;27.69;44.54;100647.00;105126;1302;73811;-81
2022/07/01 12:31:59;;;;;;;;;;;;;;;27.69;44.44;100641.92;105118;1302;61238;-81
2022/07/01 12:34:46;;;;;;;;;;;;;;;27.70;44.49;100643.63;105101;1302;61220;-81